Terminal Aerodrome Forecast
Issued by NWS Sterling, VA

Current Version | Previous Version | Graphics & Text | Print | Product List | Glossary On
Versions: 1 2 3 4 5 6 7 8 9 10 11 12 13 14 15 16 17 18 19 20 21 22
523
FTUS41 KLWX 230048 AAA
TAFMRB
TAF AMD
KMRB 230048Z 2301/2324 28006KT 4SM SHRA SCT040 OVC070
      TEMPO 2301/2303 1 1/2SM TSRA BKN040CB
     FM230400 24006KT P6SM VCTS BKN045CB
     FM230600 26005KT P6SM BKN070
     FM231800 27006KT P6SM -SHRA VCTS BKN040CB=

USA.gov is the U.S. government's official web portal to all federal, state and local government web resources and services.